createdAt,value
2018-07-21T00:01:53.421Z,6.17
2018-07-21T00:04:22.873Z,7.43
2018-07-21T00:06:52.197Z,6.80
2018-07-21T00:09:21.501Z,6.23
2018-07-21T00:11:50.742Z,6.70
2018-07-21T00:14:20.102Z,6.50
2018-07-21T00:16:49.358Z,6.97
2018-07-21T00:19:18.596Z,5.83
2018-07-21T00:21:48.060Z,6.10
2018-07-21T00:24:17.352Z,6.03
2018-07-21T00:26:48.811Z,5.90
2018-07-21T00:29:19.110Z,6.90
2018-07-21T00:31:48.522Z,7.30
2018-07-21T00:34:17.774Z,9.77
2018-07-21T00:36:47.247Z,6.47
2018-07-21T00:39:16.740Z,6.20
2018-07-21T00:41:46.105Z,6.67
2018-07-21T00:44:15.364Z,6.37
2018-07-21T00:46:44.733Z,6.00
2018-07-21T00:49:13.966Z,6.17
2018-07-21T00:51:43.209Z,6.73
2018-07-21T00:54:12.462Z,6.00
2018-07-21T00:56:41.870Z,5.57
2018-07-21T00:59:11.325Z,5.90
2018-07-21T01:01:40.819Z,5.87
2018-07-21T01:04:10.311Z,6.37
2018-07-21T01:06:39.706Z,5.87
2018-07-21T01:09:10.854Z,5.87
2018-07-21T01:11:40.491Z,5.93
2018-07-21T01:14:09.843Z,5.23
2018-07-21T01:16:39.228Z,6.20
2018-07-21T01:19:08.549Z,6.10
2018-07-21T01:21:37.803Z,5.90
2018-07-21T01:24:07.048Z,6.20
2018-07-21T01:26:36.360Z,5.97
2018-07-21T01:29:05.725Z,5.90
2018-07-21T01:31:35.161Z,6.17
2018-07-21T01:34:04.484Z,6.37
2018-07-21T01:36:33.730Z,5.90
2018-07-21T01:39:03.040Z,5.37
2018-07-21T01:41:32.309Z,5.43
2018-07-21T01:44:01.589Z,5.83
2018-07-21T01:46:30.918Z,6.87
2018-07-21T01:49:00.204Z,5.30
2018-07-21T01:51:29.636Z,5.77
2018-07-21T01:53:59.073Z,5.37
2018-07-21T01:56:28.321Z,6.70
2018-07-21T01:58:57.661Z,6.20
2018-07-21T02:01:27.308Z,5.90
2018-07-21T02:03:56.620Z,5.83
2018-07-21T02:06:26.051Z,6.60
2018-07-21T02:08:55.403Z,6.13
2018-07-21T02:11:24.641Z,5.50
2018-07-21T02:13:53.910Z,5.60
2018-07-21T02:16:23.290Z,5.70
2018-07-21T02:18:52.950Z,7.20
2018-07-21T02:21:22.274Z,5.67
2018-07-21T02:23:51.625Z,6.30
2018-07-21T02:26:20.968Z,6.77
2018-07-21T02:28:50.228Z,5.87
2018-07-21T02:31:19.723Z,12.73
2018-07-21T02:33:48.956Z,8.03
2018-07-21T02:36:18.247Z,5.90
2018-07-21T02:38:47.546Z,7.90
2018-07-21T02:41:16.870Z,7.90
2018-07-21T02:43:46.218Z,8.10
2018-07-21T02:46:15.458Z,6.90
2018-07-21T02:48:44.738Z,6.43
2018-07-21T02:51:14.065Z,6.33
2018-07-21T02:53:43.375Z,7.47
2018-07-21T02:56:12.645Z,7.30
2018-07-21T02:58:41.810Z,6.57
2018-07-21T03:01:11.074Z,7.37
2018-07-21T03:03:40.395Z,8.43
2018-07-21T03:06:09.704Z,9.00
2018-07-21T03:08:38.907Z,8.23
2018-07-21T03:11:08.158Z,8.03
2018-07-21T03:13:37.434Z,7.53
2018-07-21T03:16:06.748Z,6.67
2018-07-21T03:18:36.097Z,6.27
2018-07-21T03:21:05.451Z,6.57
2018-07-21T03:23:34.910Z,9.10
2018-07-21T03:26:04.877Z,7.57
2018-07-21T03:28:34.539Z,7.60
2018-07-21T03:31:03.887Z,6.70
2018-07-21T03:33:33.170Z,6.77
2018-07-21T03:36:02.409Z,6.33
2018-07-21T03:38:31.762Z,6.30
2018-07-21T03:41:01.018Z,6.87
2018-07-21T03:43:30.250Z,7.10
2018-07-21T03:45:59.250Z,7.23
2018-07-21T03:48:28.612Z,7.63
2018-07-21T03:50:57.848Z,8.17
2018-07-21T03:53:27.187Z,8.30
2018-07-21T03:55:56.445Z,7.17
2018-07-21T03:58:25.727Z,7.30
2018-07-21T04:00:55.225Z,7.43
2018-07-21T04:03:24.481Z,7.07
2018-07-21T04:05:53.838Z,7.50
2018-07-21T04:08:23.128Z,6.70
2018-07-21T04:10:52.335Z,7.33
2018-07-21T04:13:21.587Z,5.70
2018-07-21T04:15:50.910Z,6.73
2018-07-21T04:18:20.382Z,6.87
2018-07-21T04:20:49.778Z,6.57
2018-07-21T04:23:19.118Z,5.67
2018-07-21T04:25:48.406Z,5.77
2018-07-21T04:28:17.803Z,5.87
2018-07-21T04:30:47.002Z,8.60
2018-07-21T04:33:16.433Z,5.70
2018-07-21T04:35:46.216Z,6.30
2018-07-21T04:38:15.525Z,6.57
2018-07-21T04:40:44.890Z,7.63
2018-07-21T04:43:14.130Z,7.47
2018-07-21T04:45:43.499Z,7.40
2018-07-21T04:48:12.930Z,6.80
2018-07-21T04:50:42.292Z,7.67
2018-07-21T04:53:11.520Z,7.60
2018-07-21T04:55:40.753Z,7.30
2018-07-21T04:58:10.046Z,7.00
2018-07-21T05:00:39.587Z,6.83
2018-07-21T05:03:08.793Z,6.10
2018-07-21T05:05:37.968Z,5.50
2018-07-21T05:08:07.222Z,6.10
2018-07-21T05:10:36.477Z,6.27
2018-07-21T05:13:05.717Z,6.63
2018-07-21T05:15:34.966Z,5.37
2018-07-21T05:18:04.109Z,4.53
2018-07-21T05:20:33.386Z,3.80
2018-07-21T05:23:02.611Z,3.80
2018-07-21T05:25:31.969Z,6.00
2018-07-21T05:28:01.299Z,4.60
2018-07-21T05:30:30.479Z,4.10
2018-07-21T05:32:59.741Z,5.53
2018-07-21T05:35:28.974Z,4.90
2018-07-21T05:37:58.246Z,6.60
2018-07-21T05:40:27.569Z,4.47
2018-07-21T05:42:56.569Z,4.60
2018-07-21T05:45:25.478Z,4.73
2018-07-21T05:47:54.530Z,5.10
2018-07-21T05:50:23.478Z,5.10
2018-07-21T05:52:52.898Z,4.50
2018-07-21T05:55:22.165Z,4.00
2018-07-21T05:57:51.431Z,4.00
2018-07-21T06:00:20.702Z,3.43
2018-07-21T06:02:50.180Z,3.90
2018-07-21T06:05:19.450Z,3.00
2018-07-21T06:07:48.796Z,4.00
2018-07-21T06:10:18.106Z,4.30
2018-07-21T06:12:47.379Z,5.10
2018-07-21T06:15:16.569Z,4.30
2018-07-21T06:17:45.794Z,4.40
2018-07-21T06:20:15.071Z,5.37
2018-07-21T06:22:44.334Z,4.27
2018-07-21T06:25:13.820Z,5.43
2018-07-21T06:27:43.230Z,4.30
2018-07-21T06:30:12.465Z,5.33
2018-07-21T06:32:41.732Z,4.23
2018-07-21T06:35:10.953Z,4.73
2018-07-21T06:37:40.199Z,4.60
2018-07-21T06:40:09.442Z,5.17
2018-07-21T06:42:38.691Z,3.93
2018-07-21T06:45:07.905Z,4.10
2018-07-21T06:47:37.202Z,3.33
2018-07-21T06:50:07.689Z,4.93
2018-07-21T06:52:37.438Z,3.57
2018-07-21T06:55:07.018Z,3.83
2018-07-21T06:57:36.278Z,3.93
2018-07-21T07:00:06.025Z,4.57
2018-07-21T07:02:35.363Z,4.07
2018-07-21T07:05:04.630Z,4.50
2018-07-21T07:07:33.870Z,3.93
2018-07-21T07:10:03.196Z,4.27
2018-07-21T07:12:32.526Z,4.27
2018-07-21T07:15:01.961Z,4.00
2018-07-21T07:17:31.308Z,4.10
2018-07-21T07:20:00.650Z,4.10
2018-07-21T07:22:29.924Z,3.97
2018-07-21T07:24:59.192Z,3.70
2018-07-21T07:27:28.506Z,4.33
2018-07-21T07:29:57.801Z,3.80
2018-07-21T07:32:26.914Z,3.50
2018-07-21T07:34:55.905Z,4.57
2018-07-21T07:37:25.054Z,4.90
2018-07-21T07:39:54.330Z,4.70
2018-07-21T07:42:23.618Z,4.83
2018-07-21T07:44:52.945Z,4.80
2018-07-21T07:47:22.254Z,4.70
2018-07-21T07:49:51.443Z,4.60
2018-07-21T07:52:20.726Z,4.00
2018-07-21T07:54:50.388Z,4.77
2018-07-21T07:57:19.981Z,4.20
2018-07-21T07:59:50.089Z,4.40
2018-07-21T08:02:19.864Z,4.90
2018-07-21T08:04:49.647Z,4.53
2018-07-21T08:07:18.912Z,4.13
2018-07-21T08:09:48.221Z,3.63
2018-07-21T08:12:17.466Z,4.20
2018-07-21T08:14:46.726Z,4.37
2018-07-21T08:17:16.137Z,3.90
2018-07-21T08:19:45.670Z,5.00
2018-07-21T08:22:14.894Z,5.77
2018-07-21T08:24:44.221Z,4.83
2018-07-21T08:27:13.569Z,5.27
2018-07-21T08:29:42.839Z,5.93
2018-07-21T08:32:12.078Z,5.20
2018-07-21T08:34:41.402Z,5.37
2018-07-21T08:37:10.495Z,5.80
2018-07-21T08:39:39.730Z,6.17
2018-07-21T08:42:08.965Z,4.80
2018-07-21T08:44:38.209Z,4.63
2018-07-21T08:47:07.662Z,5.27
2018-07-21T08:49:37.021Z,5.40
2018-07-21T08:52:06.390Z,4.17
2018-07-21T08:54:35.718Z,4.50
2018-07-21T08:57:05.019Z,5.00
2018-07-21T08:59:34.358Z,4.57
2018-07-21T09:02:03.598Z,5.07
2018-07-21T09:04:32.940Z,4.17
2018-07-21T09:07:02.270Z,4.00
2018-07-21T09:09:31.646Z,3.57
2018-07-21T09:12:01.037Z,4.40
2018-07-21T09:14:30.435Z,4.37
2018-07-21T09:16:59.609Z,4.20
2018-07-21T09:19:29.074Z,4.40
2018-07-21T09:21:58.548Z,3.90
2018-07-21T09:24:27.851Z,3.77
2018-07-21T09:26:57.050Z,4.10
2018-07-21T09:29:26.471Z,3.57
2018-07-21T09:31:55.713Z,3.90
2018-07-21T09:34:24.962Z,3.97
2018-07-21T09:36:54.250Z,4.20
2018-07-21T09:39:23.545Z,4.33
2018-07-21T09:41:52.846Z,5.93
2018-07-21T09:44:22.157Z,3.93
2018-07-21T09:46:51.531Z,4.30
2018-07-21T09:49:20.883Z,4.00
2018-07-21T09:51:50.131Z,4.13
2018-07-21T09:54:19.474Z,3.93
2018-07-21T09:56:48.749Z,5.80
2018-07-21T09:59:18.173Z,3.50
2018-07-21T10:01:47.422Z,3.87
2018-07-21T10:04:16.741Z,4.23
2018-07-21T10:06:46.160Z,4.63
2018-07-21T10:09:15.470Z,3.80
2018-07-21T10:11:44.859Z,3.90
2018-07-21T10:14:14.060Z,4.83
2018-07-21T10:16:43.719Z,4.13
2018-07-21T10:19:13.077Z,3.50
2018-07-21T10:21:42.562Z,4.73
2018-07-21T10:24:16.947Z,4.60
2018-07-21T10:26:51.159Z,4.20
2018-07-21T10:29:20.518Z,4.17
2018-07-21T10:31:49.794Z,3.00
2018-07-21T10:34:19.334Z,3.70
2018-07-21T10:36:48.710Z,3.37
2018-07-21T10:39:18.042Z,4.50
2018-07-21T10:41:47.322Z,4.00
2018-07-21T10:44:16.717Z,3.93
2018-07-21T10:46:46.234Z,3.80
2018-07-21T10:49:15.500Z,4.20
2018-07-21T10:51:44.742Z,4.37
2018-07-21T10:54:14.087Z,4.10
2018-07-21T10:56:43.325Z,4.47
2018-07-21T10:59:12.685Z,4.37
2018-07-21T11:01:41.970Z,3.80
2018-07-21T11:04:12.158Z,3.70
2018-07-21T11:06:41.571Z,3.80
2018-07-21T11:09:11.689Z,5.93
2018-07-21T11:11:41.150Z,5.00
2018-07-21T11:14:10.343Z,7.23
2018-07-21T11:16:39.700Z,5.57
2018-07-21T11:19:09.068Z,6.20
2018-07-21T11:21:38.285Z,7.27
2018-07-21T11:24:07.540Z,7.07
2018-07-21T11:26:37.095Z,8.13
2018-07-21T11:29:06.266Z,7.10
2018-07-21T11:31:35.614Z,7.00
2018-07-21T11:34:04.951Z,6.57
2018-07-21T11:36:34.239Z,6.67
2018-07-21T11:39:03.631Z,6.90
2018-07-21T11:41:32.876Z,7.33
2018-07-21T11:44:02.138Z,6.83
2018-07-21T11:46:31.442Z,6.13
2018-07-21T11:49:00.752Z,6.53
2018-07-21T11:51:29.993Z,7.93
2018-07-21T11:53:59.264Z,7.03
2018-07-21T11:56:28.591Z,7.87
2018-07-21T11:58:57.939Z,6.97
2018-07-21T12:01:27.184Z,7.73
2018-07-21T12:03:56.347Z,7.03
2018-07-21T12:06:25.710Z,9.70
2018-07-21T12:08:54.972Z,8.20
2018-07-21T12:11:24.291Z,8.57
2018-07-21T12:13:53.583Z,8.57
2018-07-21T12:16:22.925Z,9.60
2018-07-21T12:18:52.150Z,8.97
2018-07-21T12:21:21.405Z,9.70
2018-07-21T12:23:50.663Z,9.77
2018-07-21T12:26:19.911Z,8.70
2018-07-21T12:28:49.157Z,11.00
2018-07-21T12:31:18.803Z,9.27
2018-07-21T12:33:48.102Z,10.50
2018-07-21T12:36:17.818Z,10.77
2018-07-21T12:38:47.313Z,11.50
2018-07-21T12:41:16.729Z,10.77
2018-07-21T12:43:45.990Z,10.80
2018-07-21T12:46:15.234Z,10.40
2018-07-21T12:48:44.502Z,10.50
2018-07-21T12:51:13.854Z,10.67
2018-07-21T12:53:43.129Z,11.60
2018-07-21T12:56:12.416Z,10.70
2018-07-21T12:58:41.739Z,12.00
2018-07-21T13:01:11.005Z,10.30
2018-07-21T13:03:40.223Z,9.90
2018-07-21T13:06:09.473Z,10.30
2018-07-21T13:08:38.727Z,9.63
2018-07-21T13:11:07.972Z,9.87
2018-07-21T13:13:37.273Z,10.73
2018-07-21T13:16:06.588Z,11.30
2018-07-21T13:18:35.822Z,10.50
2018-07-21T13:21:05.084Z,10.30
2018-07-21T13:23:34.423Z,11.53
2018-07-21T13:26:03.791Z,10.60
2018-07-21T13:28:33.413Z,11.17
2018-07-21T13:31:02.636Z,11.00
2018-07-21T13:33:32.034Z,9.50
2018-07-21T13:36:01.305Z,10.40
2018-07-21T13:38:30.301Z,10.33
2018-07-21T13:40:59.233Z,10.13
2018-07-21T13:43:28.222Z,10.63
2018-07-21T13:45:57.456Z,10.83
2018-07-21T13:48:26.831Z,9.77
2018-07-21T13:50:56.055Z,10.53
2018-07-21T13:53:25.293Z,9.90
2018-07-21T13:55:54.561Z,11.03
2018-07-21T13:58:23.910Z,11.10
2018-07-21T14:00:53.171Z,9.43
2018-07-21T14:03:22.433Z,10.47
2018-07-21T14:05:51.687Z,10.80
2018-07-21T14:08:20.923Z,11.00
2018-07-21T14:10:50.161Z,9.80
2018-07-21T14:13:19.390Z,9.23
2018-07-21T14:15:48.736Z,10.27
2018-07-21T14:18:18.133Z,9.30
2018-07-21T14:20:47.393Z,10.23
2018-07-21T14:23:16.652Z,10.10
2018-07-21T14:25:45.878Z,9.30
2018-07-21T14:28:15.377Z,9.30
2018-07-21T14:30:44.572Z,9.20
2018-07-21T14:33:13.818Z,9.40
2018-07-21T14:35:43.263Z,9.57
2018-07-21T14:38:12.621Z,11.17
2018-07-21T14:40:41.880Z,9.77
2018-07-21T14:43:11.238Z,8.80
2018-07-21T14:45:40.478Z,8.70
2018-07-21T14:48:09.931Z,9.03
2018-07-21T14:50:39.696Z,8.70
2018-07-21T14:53:08.941Z,8.00
2018-07-21T14:55:38.241Z,9.50
2018-07-21T14:58:07.641Z,8.73
2018-07-21T15:00:37.217Z,8.67
2018-07-21T15:03:06.578Z,8.93
2018-07-21T15:05:35.794Z,7.73
2018-07-21T15:08:05.166Z,7.80
2018-07-21T15:10:34.415Z,8.13
2018-07-21T15:13:03.666Z,7.00
2018-07-21T15:15:32.914Z,7.73
2018-07-21T15:18:02.156Z,8.60
2018-07-21T15:20:31.403Z,7.20
2018-07-21T15:23:00.659Z,7.70
2018-07-21T15:25:29.889Z,7.87
2018-07-21T15:27:59.230Z,8.77
2018-07-21T15:30:28.406Z,9.67
2018-07-21T15:32:57.633Z,9.97
2018-07-21T15:35:26.813Z,9.47
2018-07-21T15:37:56.149Z,9.43
2018-07-21T15:40:25.556Z,9.67
2018-07-21T15:42:54.862Z,9.30
2018-07-21T15:45:24.106Z,9.50
2018-07-21T15:47:53.503Z,10.00
2018-07-21T15:50:22.803Z,9.37
2018-07-21T15:52:52.174Z,10.33
2018-07-21T15:55:22.067Z,9.73
2018-07-21T15:57:51.681Z,9.17
2018-07-21T16:00:21.614Z,8.93
2018-07-21T16:02:50.928Z,9.97
2018-07-21T16:05:20.162Z,9.50
2018-07-21T16:07:49.418Z,8.97
2018-07-21T16:10:18.761Z,10.80
2018-07-21T16:12:48.109Z,11.73
2018-07-21T16:15:17.519Z,10.33
2018-07-21T16:17:46.915Z,10.33
2018-07-21T16:20:16.174Z,9.77
2018-07-21T16:22:45.651Z,9.20
2018-07-21T16:25:14.883Z,8.83
2018-07-21T16:27:44.165Z,9.87
2018-07-21T16:30:13.499Z,10.53
2018-07-21T16:32:42.793Z,9.10
2018-07-21T16:35:12.091Z,8.70
2018-07-21T16:37:41.250Z,9.87
2018-07-21T16:40:10.512Z,10.00
2018-07-21T16:42:39.760Z,9.63
2018-07-21T16:45:08.995Z,9.60
2018-07-21T16:47:38.254Z,9.53
2018-07-21T16:50:07.500Z,9.03
2018-07-21T16:52:36.757Z,9.03
2018-07-21T16:55:05.897Z,10.70
2018-07-21T16:57:35.154Z,9.33
2018-07-21T17:00:04.511Z,10.40
2018-07-21T17:02:33.772Z,10.03
2018-07-21T17:05:03.088Z,10.77
2018-07-21T17:07:32.811Z,10.60
2018-07-21T17:10:02.217Z,10.10
2018-07-21T17:12:31.482Z,10.50
2018-07-21T17:15:00.722Z,10.57
2018-07-21T17:17:30.000Z,10.00
2018-07-21T17:19:59.321Z,10.43
2018-07-21T17:22:28.563Z,10.33
2018-07-21T17:24:57.636Z,10.63
2018-07-21T17:27:26.853Z,10.43
2018-07-21T17:29:56.137Z,9.73
2018-07-21T17:32:25.362Z,11.20
2018-07-21T17:34:54.631Z,9.90
2018-07-21T17:37:23.898Z,9.27
2018-07-21T17:39:53.311Z,9.90
2018-07-21T17:42:22.693Z,9.10
2018-07-21T17:44:51.954Z,8.93
2018-07-21T17:47:21.173Z,10.33
2018-07-21T17:49:50.422Z,9.90
2018-07-21T17:52:19.744Z,10.23
2018-07-21T17:54:49.123Z,10.33
2018-07-21T17:57:18.360Z,10.23
2018-07-21T17:59:47.720Z,11.23
2018-07-21T18:02:17.078Z,10.80
2018-07-21T18:04:46.307Z,11.00
2018-07-21T18:07:15.592Z,10.93
2018-07-21T18:09:44.811Z,10.90
2018-07-21T18:12:13.963Z,11.03
2018-07-21T18:14:43.399Z,9.17
2018-07-21T18:17:12.720Z,8.63
2018-07-21T18:19:42.123Z,9.03
2018-07-21T18:22:11.370Z,9.50
2018-07-21T18:24:40.616Z,9.50
2018-07-21T18:27:09.907Z,8.93
2018-07-21T18:29:39.220Z,7.87
2018-07-21T18:32:08.486Z,7.13
2018-07-21T18:34:37.740Z,7.30
2018-07-21T18:37:06.985Z,7.40
2018-07-21T18:39:36.219Z,6.73
2018-07-21T18:42:05.464Z,7.60
2018-07-21T18:44:34.797Z,7.50
2018-07-21T18:47:04.083Z,6.70
2018-07-21T18:49:33.201Z,7.40
2018-07-21T18:52:02.517Z,7.60
2018-07-21T18:54:31.931Z,7.13
2018-07-21T18:57:01.200Z,6.97
2018-07-21T18:59:30.427Z,7.23
2018-07-21T19:01:59.670Z,6.60
2018-07-21T19:04:29.061Z,7.80
2018-07-21T19:06:58.260Z,8.90
2018-07-21T19:09:27.610Z,8.60
2018-07-21T19:13:03.989Z,7.97
2018-07-21T19:15:38.167Z,7.20
2018-07-21T19:18:07.354Z,6.80
2018-07-21T19:20:41.502Z,8.63
2018-07-21T19:23:11.061Z,8.30
2018-07-21T19:25:45.462Z,7.13
2018-07-21T19:28:14.749Z,7.67
2018-07-21T19:30:44.154Z,7.30
2018-07-21T19:33:13.410Z,6.80
2018-07-21T19:35:42.645Z,6.93
2018-07-21T19:38:12.012Z,7.13
2018-07-21T19:40:41.341Z,6.43
2018-07-21T19:43:10.706Z,6.50
2018-07-21T19:45:39.946Z,7.13
2018-07-21T19:48:09.201Z,4.80
2018-07-21T19:50:38.430Z,4.97
2018-07-21T19:53:07.712Z,4.07
2018-07-21T19:55:37.049Z,3.70
2018-07-21T19:58:06.375Z,3.27
2018-07-21T20:00:35.789Z,3.50
2018-07-21T20:03:05.139Z,3.07
2018-07-21T20:05:34.521Z,3.80
2018-07-21T20:08:03.702Z,4.20
2018-07-21T20:10:32.950Z,3.37
2018-07-21T20:13:02.205Z,3.30
2018-07-21T20:15:31.454Z,4.37
2018-07-21T20:18:00.749Z,3.00
2018-07-21T20:20:30.090Z,3.00
2018-07-21T20:22:59.346Z,3.33
2018-07-21T20:25:28.662Z,3.33
2018-07-21T20:27:57.910Z,3.70
2018-07-21T20:30:27.737Z,4.40
2018-07-21T20:32:57.173Z,4.60
2018-07-21T20:35:26.462Z,6.70
2018-07-21T20:37:55.766Z,3.60
2018-07-21T20:40:25.188Z,4.63
2018-07-21T20:42:54.667Z,5.17
2018-07-21T20:45:23.966Z,5.67
2018-07-21T20:47:53.239Z,5.10
2018-07-21T20:50:22.493Z,5.30
2018-07-21T20:52:51.747Z,6.17
2018-07-21T20:55:20.970Z,4.73
2018-07-21T20:57:50.231Z,4.43
2018-07-21T21:00:19.503Z,5.13
2018-07-21T21:02:48.781Z,5.17
2018-07-21T21:05:18.110Z,5.87
2018-07-21T21:07:47.461Z,5.43
2018-07-21T21:10:16.689Z,5.80
2018-07-21T21:12:46.066Z,5.40
2018-07-21T21:15:15.280Z,5.63
2018-07-21T21:17:44.531Z,4.90
2018-07-21T21:20:13.769Z,5.20
2018-07-21T21:22:43.062Z,4.10
2018-07-21T21:25:12.383Z,4.60
2018-07-21T21:27:41.675Z,4.40
2018-07-21T21:30:11.110Z,4.67
2018-07-21T21:32:40.365Z,5.17
2018-07-21T21:35:09.597Z,4.50
2018-07-21T21:37:38.551Z,5.23
2018-07-21T21:40:07.491Z,5.10
2018-07-21T21:42:36.717Z,4.50
2018-07-21T21:45:06.063Z,4.30
2018-07-21T21:47:35.486Z,4.10
2018-07-21T21:50:04.843Z,4.53
2018-07-21T21:52:34.073Z,4.47
2018-07-21T21:55:03.341Z,4.87
2018-07-21T21:57:32.691Z,4.13
2018-07-21T22:00:02.000Z,4.20
2018-07-21T22:02:31.376Z,4.70
2018-07-21T22:05:00.391Z,5.60
2018-07-21T22:07:29.776Z,4.13
2018-07-21T22:09:59.070Z,3.80
2018-07-21T22:12:28.714Z,3.83
2018-07-21T22:14:58.116Z,4.00
2018-07-21T22:17:27.500Z,5.20
2018-07-21T22:19:56.753Z,4.00
2018-07-21T22:22:25.976Z,4.70
2018-07-21T22:24:55.517Z,5.20
2018-07-21T22:27:24.779Z,5.57
2018-07-21T22:29:53.970Z,5.23
2018-07-21T22:32:23.328Z,5.30
2018-07-21T22:34:52.591Z,5.53
2018-07-21T22:37:21.910Z,6.30
2018-07-21T22:39:51.274Z,5.50
2018-07-21T22:42:20.519Z,5.37
2018-07-21T22:44:49.756Z,6.60
2018-07-21T22:47:19.326Z,6.27
2018-07-21T22:49:48.813Z,5.60
2018-07-21T22:52:18.102Z,5.73
2018-07-21T22:54:47.573Z,5.90
2018-07-21T22:57:17.024Z,5.57
2018-07-21T22:59:46.402Z,5.60
2018-07-21T23:02:15.731Z,5.90
2018-07-21T23:04:45.071Z,5.33
2018-07-21T23:07:14.318Z,4.77
2018-07-21T23:09:43.586Z,5.30
2018-07-21T23:12:12.813Z,5.10
2018-07-21T23:14:42.098Z,5.70
2018-07-21T23:17:11.638Z,5.83
2018-07-21T23:19:41.030Z,6.27
2018-07-21T23:22:10.434Z,6.17
2018-07-21T23:24:39.753Z,7.27
2018-07-21T23:27:09.042Z,5.87
2018-07-21T23:29:38.301Z,6.37
2018-07-21T23:32:07.539Z,6.60
2018-07-21T23:34:36.903Z,6.93
2018-07-21T23:37:06.149Z,5.33
2018-07-21T23:39:35.404Z,6.43
2018-07-21T23:42:04.644Z,6.30
2018-07-21T23:44:34.017Z,6.10
2018-07-21T23:47:03.233Z,5.90
2018-07-21T23:49:32.221Z,6.10
2018-07-21T23:52:01.205Z,7.00
2018-07-21T23:54:30.110Z,6.27
2018-07-21T23:56:59.100Z,5.60
2018-07-21T23:59:28.030Z,6.27
